Time;durP1;ratioP1;P1;durP2;ratioP2;P2;SDS_P1;SDS_P2;PMS_P1;PMS_P2;Temp;Humidity;BMP_temperature;BMP_pressure;BME280_temperature;BME280_humidity;BME280_pressure;Samples;Min_cycle;Max_cycle;Signal;HPM_P1;HPM_P2
2022/01/11 00:00:20;;;;;;;;;25.33;20.33;;;;;4.05;100.00;102597.47;5060696;28;45488;-83
2022/01/11 00:02:45;;;;;;;;;33.33;25.67;;;;;4.06;100.00;102604.50;5060268;28;44817;-81
2022/01/11 00:05:20;;;;;;;;;27.67;21.67;;;;;4.07;100.00;102600.97;5057703;28;47163;-80
2022/01/11 00:07:47;;;;;;;;;31.33;27.33;;;;;4.09;100.00;102603.59;5059489;28;44691;-82
2022/01/11 00:10:21;;;;;;;;;38.00;30.67;;;;;4.07;100.00;102600.09;5059199;28;44765;-82
2022/01/11 00:12:47;;;;;;;;;30.33;23.67;;;;;4.01;100.00;102587.91;5059430;28;44767;-79
2022/01/11 00:15:12;;;;;;;;;24.33;24.33;;;;;4.00;100.00;102596.66;5058562;28;45727;-81
2022/01/11 00:17:37;;;;;;;;;25.00;22.33;;;;;3.97;100.00;102594.06;5058960;28;44788;-81
2022/01/11 00:20:05;;;;;;;;;23.67;20.67;;;;;3.96;100.00;102601.94;5060099;28;44826;-81
2022/01/11 00:22:34;;;;;;;;;29.00;20.67;;;;;3.96;100.00;102607.22;5059983;28;44774;-83
2022/01/11 00:25:01;;;;;;;;;26.00;24.00;;;;;3.93;100.00;102609.88;5060592;28;45248;-81
2022/01/11 00:27:26;;;;;;;;;22.00;20.33;;;;;3.90;100.00;102600.25;5063841;28;45216;-82
2022/01/11 00:29:55;;;;;;;;;28.00;18.33;;;;;3.92;100.00;102603.75;5062801;28;44638;-81
2022/01/11 00:32:30;;;;;;;;;33.33;26.67;;;;;3.91;100.00;102601.13;5058934;28;44927;-81
2022/01/11 00:34:56;;;;;;;;;19.00;19.00;;;;;3.90;100.00;102600.25;5057516;28;45434;-80
2022/01/11 00:37:21;;;;;;;;;27.33;25.00;;;;;3.90;100.00;102594.13;5058927;28;45315;-80
2022/01/11 00:39:49;;;;;;;;;25.67;24.33;;;;;3.90;100.00;102597.63;5075441;27;44794;-81
2022/01/11 00:42:16;;;;;;;;;26.00;21.67;;;;;3.91;100.00;102596.72;5079257;27;44871;-82
2022/01/11 00:44:42;;;;;;;;;31.00;27.33;;;;;3.91;100.00;102596.72;5079377;28;44976;-81
2022/01/11 00:47:09;;;;;;;;;26.00;24.33;;;;;3.85;100.00;102589.78;5080905;27;45348;-83
2022/01/11 00:49:35;;;;;;;;;28.33;24.67;;;;;3.87;100.00;102595.03;5081518;27;45397;-83
2022/01/11 00:52:01;;;;;;;;;33.00;27.33;;;;;3.89;100.00;102602.91;5079378;28;44849;-80
2022/01/11 00:54:27;;;;;;;;;33.33;29.33;;;;;3.91;100.00;102606.38;5078100;27;45310;-81
2022/01/11 00:56:53;;;;;;;;;32.67;31.00;;;;;3.87;100.00;102605.56;5078848;27;45302;-81
2022/01/11 00:59:18;;;;;;;;;31.33;26.67;;;;;3.88;100.00;102603.81;5080660;27;44696;-80
2022/01/11 01:01:43;;;;;;;;;34.33;22.67;;;;;3.87;100.00;102608.19;5082543;27;45491;-81
2022/01/11 01:04:09;;;;;;;;;41.33;26.67;;;;;3.88;100.00;102606.44;5078302;27;45279;-80
2022/01/11 01:06:35;;;;;;;;;32.67;24.67;;;;;3.86;100.00;102594.16;5077653;28;45322;-81
2022/01/11 01:09:01;;;;;;;;;25.00;19.00;;;;;3.85;100.00;102600.28;5078767;27;44738;-81
2022/01/11 01:11:26;;;;;;;;;33.00;28.00;;;;;3.82;100.00;102604.69;5079086;27;45287;-82
2022/01/11 01:13:52;;;;;;;;;32.00;31.00;;;;;3.82;100.00;102605.59;5078383;28;45171;-83
2022/01/11 01:16:20;;;;;;;;;31.67;28.00;;;;;3.83;100.00;102619.59;5078896;27;44771;-83
2022/01/11 01:18:46;;;;;;;;;28.67;24.67;;;;;3.81;100.00;102616.97;5076957;27;45536;-83
2022/01/11 01:21:11;;;;;;;;;27.67;23.00;;;;;3.83;100.00;102616.97;5078704;28;44971;-83
2022/01/11 01:23:37;;;;;;;;;32.00;22.33;;;;;3.84;100.00;102621.34;5078280;27;45343;-83
2022/01/11 01:26:03;;;;;;;;;35.67;29.33;;;;;3.82;100.00;102629.25;5078684;28;44847;-83
2022/01/11 01:28:29;;;;;;;;;41.33;33.00;;;;;3.83;100.00;102624.88;5078536;27;45576;-83
2022/01/11 01:31:00;;;;;;;;;33.67;29.67;;;;;3.80;100.00;102609.97;5079159;27;44819;-84
2022/01/11 01:33:26;;;;;;;;;34.33;31.00;;;;;3.82;100.00;102617.84;5085278;28;45132;-83
2022/01/11 01:35:58;;;;;;;;;42.00;29.33;;;;;3.82;100.00;102623.09;5079606;27;44770;-82
2022/01/11 01:38:25;;;;;;;;;38.00;33.00;;;;;3.83;100.00;102620.47;5071029;27;45508;-81
2022/01/11 01:40:54;;;;;;;;;36.33;29.33;;;;;3.83;100.00;102619.59;5058860;28;44881;-82
2022/01/11 01:43:20;;;;;;;;;39.33;35.00;;;;;3.80;100.00;102619.63;5059753;28;45640;-81
2022/01/11 01:45:45;;;;;;;;;43.00;34.33;;;;;3.78;100.00;102630.16;5063531;28;44846;-80
2022/01/11 01:48:13;;;;;;;;;35.33;33.33;;;;;3.81;100.00;102635.38;5073427;28;44738;-82
2022/01/11 01:50:38;;;;;;;;;38.33;29.67;;;;;3.79;100.00;102634.53;5078678;28;44789;-82
2022/01/11 01:53:07;;;;;;;;;33.33;30.67;;;;;3.80;100.00;102643.28;5076237;28;45646;-82
2022/01/11 01:55:33;;;;;;;;;37.00;34.33;;;;;3.77;100.00;102641.56;5080125;28;44778;-83
2022/01/11 01:57:58;;;;;;;;;36.67;30.67;;;;;3.74;100.00;102638.09;5075565;28;44752;-82
2022/01/11 02:00:25;;;;;;;;;46.33;37.67;;;;;3.69;100.00;102635.50;5058849;28;44720;-82
2022/01/11 02:02:51;;;;;;;;;29.67;27.67;;;;;3.66;100.00;102640.75;5059063;28;44977;-83
2022/01/11 02:05:17;;;;;;;;;40.67;33.00;;;;;3.67;100.00;102652.13;5069141;28;45345;-83
2022/01/11 02:07:42;;;;;;;;;35.67;31.67;;;;;3.66;100.00;102651.28;5065128;28;44712;-80
2022/01/11 02:10:08;;;;;;;;;39.67;30.33;;;;;3.63;100.00;102650.41;5062859;28;44809;-81
2022/01/11 02:12:34;;;;;;;;;44.33;34.67;;;;;3.58;100.00;102653.97;5058112;28;45465;-80
2022/01/11 02:15:00;;;;;;;;;40.00;34.00;;;;;3.58;100.00;102659.22;5057489;28;44938;-80
2022/01/11 02:17:28;;;;;;;;;36.00;32.33;;;;;3.56;100.00;102660.97;5057045;28;44788;-81
2022/01/11 02:19:55;;;;;;;;;33.67;29.00;;;;;3.58;100.00;102658.38;5057377;28;45344;-81
2022/01/11 02:22:22;;;;;;;;;38.00;33.67;;;;;3.56;100.00;102649.59;5056040;28;45374;-81
2022/01/11 02:24:47;;;;;;;;;29.33;24.33;;;;;3.56;100.00;102662.72;5057427;28;45280;-81
2022/01/11 02:27:13;;;;;;;;;39.00;30.00;;;;;3.51;100.00;102656.63;5072827;28;44981;-81
2022/01/11 02:29:38;;;;;;;;;33.33;28.67;;;;;3.50;100.00;102657.53;5057248;28;45451;-80
2022/01/11 02:32:04;;;;;;;;;30.00;27.33;;;;;3.49;100.00;102658.41;5057452;28;45455;-80
2022/01/11 02:34:30;;;;;;;;;23.00;20.33;;;;;3.47;100.00;102658.41;5057016;28;44926;-81
2022/01/11 02:36:55;;;;;;;;;40.67;30.33;;;;;3.44;100.00;102660.19;5056250;28;45025;-80
2022/01/11 02:39:21;;;;;;;;;37.67;30.33;;;;;3.40;100.00;102661.09;5071739;28;44907;-81
2022/01/11 02:41:52;;;;;;;;;43.33;27.67;;;;;3.38;100.00;102660.22;5080921;28;45454;-80
2022/01/11 02:44:17;;;;;;;;;27.33;25.67;;;;;3.35;100.00;102655.88;5080578;27;44697;-81
2022/01/11 02:46:42;;;;;;;;;36.33;27.33;;;;;3.30;100.00;102657.66;5077335;28;45596;-80
2022/01/11 02:49:08;;;;;;;;;32.67;26.67;;;;;3.28;100.00;102668.16;5077284;27;44794;-81
2022/01/11 02:51:33;;;;;;;;;38.67;27.33;;;;;3.27;100.00;102666.41;5077610;28;45540;-81
2022/01/11 02:54:00;;;;;;;;;26.67;26.67;;;;;3.26;100.00;102664.66;5076494;27;45409;-78
2022/01/11 02:56:26;;;;;;;;;27.33;25.33;;;;;3.26;100.00;102664.66;5076053;27;44785;-80
2022/01/11 02:58:52;;;;;;;;;25.33;22.67;;;;;3.27;100.00;102668.16;5076906;27;45359;-80
2022/01/11 03:01:18;;;;;;;;;32.67;28.00;;;;;3.28;100.00;102668.16;5077211;28;45060;-81
2022/01/11 03:03:44;;;;;;;;;28.67;24.33;;;;;3.29;100.00;102672.53;5077044;27;45429;-81
2022/01/11 03:06:09;;;;;;;;;30.33;25.67;;;;;3.31;100.00;102662.88;5077374;27;44734;-80
2022/01/11 03:08:42;;;;;;;;;30.00;26.33;;;;;3.33;100.00;102665.50;5076827;27;44966;-79
2022/01/11 03:11:10;;;;;;;;;31.00;24.00;;;;;3.34;100.00;102670.75;5075753;27;45004;-80
2022/01/11 03:13:38;;;;;;;;;32.33;25.67;;;;;3.34;100.00;102673.38;5075881;28;44904;-80
2022/01/11 03:16:04;;;;;;;;;31.33;25.67;;;;;3.35;100.00;102666.38;5076574;28;44749;-82
2022/01/11 03:18:30;;;;;;;;;31.67;26.00;;;;;3.33;100.00;102676.00;5080445;27;44785;-82
2022/01/11 03:20:56;;;;;;;;;28.33;24.67;;;;;3.33;100.00;102687.38;5081664;28;45009;-83
2022/01/11 03:23:22;;;;;;;;;25.33;17.67;;;;;3.36;100.00;102689.13;5077023;28;45367;-82
2022/01/11 03:25:52;;;;;;;;;33.33;27.33;;;;;3.35;100.00;102693.53;5075961;28;44786;-83
2022/01/11 03:28:22;;;;;;;;;28.67;22.67;;;;;3.34;100.00;102690.91;5076511;28;45702;-82
2022/01/11 03:30:49;;;;;;;;;28.67;24.67;;;;;3.32;100.00;102690.91;5079649;27;45319;-83
2022/01/11 03:33:15;;;;;;;;;35.00;24.33;;;;;3.34;100.00;102685.66;5079844;27;45307;-83
2022/01/11 03:35:41;;;;;;;;;29.67;26.00;;;;;3.34;100.00;102683.91;5079494;27;45148;-83
2022/01/11 03:38:10;;;;;;;;;32.33;23.67;;;;;3.34;100.00;102683.03;5079726;27;44835;-83
2022/01/11 03:40:36;;;;;;;;;28.33;19.33;;;;;3.35;100.00;102680.38;5079529;27;45566;-82
2022/01/11 03:43:01;;;;;;;;;30.33;25.00;;;;;3.37;100.00;102688.25;5079188;27;45406;-83
2022/01/11 03:45:28;;;;;;;;;29.00;23.67;;;;;3.40;100.00;102703.13;5079452;27;44726;-84
2022/01/11 03:47:56;;;;;;;;;30.00;23.00;;;;;3.43;100.00;102710.97;5083005;27;44860;-84
2022/01/11 03:50:22;;;;;;;;;26.33;25.00;;;;;3.45;100.00;102699.59;5079213;27;47039;-82
2022/01/11 03:52:51;;;;;;;;;31.00;25.33;;;;;3.45;100.00;102698.72;5080923;27;44750;-79
2022/01/11 03:55:31;;;;;;;;;30.33;24.00;;;;;3.44;100.00;102704.88;5082039;28;44701;-80
2022/01/11 03:57:57;;;;;;;;;38.67;30.00;;;;;3.42;100.00;102706.59;5082903;27;45601;-80
2022/01/11 04:00:23;;;;;;;;;38.00;29.33;;;;;3.40;100.00;102714.50;5081108;27;45345;-80
2022/01/11 04:02:48;;;;;;;;;34.33;26.67;;;;;3.37;100.00;102708.38;5078825;27;44817;-80
2022/01/11 04:05:15;;;;;;;;;36.00;27.67;;;;;3.34;100.00;102698.78;5078941;27;45347;-80
2022/01/11 04:07:41;;;;;;;;;30.00;21.67;;;;;3.31;100.00;102707.53;5077951;27;44995;-81
2022/01/11 04:10:08;;;;;;;;;34.67;31.00;;;;;3.31;100.00;102696.16;5078942;27;45169;-80
2022/01/11 04:12:34;;;;;;;;;34.67;31.33;;;;;3.31;100.00;102694.41;5078465;27;44683;-80
2022/01/11 04:15:00;;;;;;;;;31.67;30.33;;;;;3.29;100.00;102688.31;5078505;28;44872;-80
2022/01/11 04:17:25;;;;;;;;;29.67;25.00;;;;;3.29;100.00;102696.19;5078786;27;45294;-80
2022/01/11 04:19:52;;;;;;;;;35.33;27.67;;;;;3.29;100.00;102690.94;5077305;27;45924;-80
2022/01/11 04:22:19;;;;;;;;;41.00;28.33;;;;;3.26;100.00;102687.44;5079638;27;45503;-80
2022/01/11 04:24:45;;;;;;;;;33.33;30.33;;;;;3.21;100.00;102705.84;5079165;27;45323;-81
2022/01/11 04:27:12;;;;;;;;;36.33;28.67;;;;;3.16;100.00;102705.00;5078878;27;45441;-80
2022/01/11 04:29:37;;;;;;;;;34.67;28.00;;;;;3.14;100.00;102696.22;5078702;27;45076;-80
2022/01/11 04:32:03;;;;;;;;;29.33;20.33;;;;;3.11;100.00;102693.63;5078417;28;45433;-81
2022/01/11 04:34:29;;;;;;;;;36.67;24.00;;;;;3.09;100.00;102698.00;5081076;27;44783;-80
2022/01/11 04:36:55;;;;;;;;;40.67;30.33;;;;;3.05;100.00;102691.91;5082971;27;44873;-82
2022/01/11 04:39:22;;;;;;;;;42.33;33.00;;;;;3.02;100.00;102693.69;5066453;28;45079;-80
2022/01/11 04:41:49;;;;;;;;;37.00;29.67;;;;;3.01;100.00;102689.31;5057655;28;44814;-80
2022/01/11 04:44:14;;;;;;;;;41.00;34.67;;;;;3.00;100.00;102695.44;5058030;28;45355;-81
2022/01/11 04:46:39;;;;;;;;;43.33;33.33;;;;;2.94;100.00;102705.94;5058605;28;45154;-80
2022/01/11 04:49:05;;;;;;;;;39.67;32.67;;;;;2.97;100.00;102724.31;5059101;28;45197;-81
2022/01/11 04:51:33;;;;;;;;;48.33;38.00;;;;;2.96;100.00;102712.09;5057153;28;44768;-81
2022/01/11 04:53:59;;;;;;;;;26.00;26.00;;;;;2.97;100.00;102712.06;5057106;28;45439;-81
2022/01/11 04:56:25;;;;;;;;;35.00;27.00;;;;;2.95;100.00;102707.69;5057723;28;45285;-80
2022/01/11 04:58:50;;;;;;;;;42.67;32.00;;;;;2.95;100.00;102705.06;5057655;28;45028;-80
2022/01/11 05:01:17;;;;;;;;;41.33;32.00;;;;;2.95;100.00;102707.69;5057285;28;45281;-81
2022/01/11 05:03:43;;;;;;;;;40.33;32.33;;;;;2.96;100.00;102720.84;5058026;28;44761;-83
2022/01/11 05:06:08;;;;;;;;;44.67;36.00;;;;;2.93;100.00;102720.81;5057502;28;44884;-83
2022/01/11 05:08:34;;;;;;;;;37.00;33.00;;;;;2.94;100.00;102726.94;5057958;28;45422;-83
2022/01/11 05:10:59;;;;;;;;;46.67;33.67;;;;;2.92;100.00;102732.22;5057677;28;45474;-82
2022/01/11 05:13:25;;;;;;;;;38.67;25.67;;;;;2.90;100.00;102730.47;5057090;28;45398;-83
2022/01/11 05:15:50;;;;;;;;;41.67;37.00;;;;;2.90;100.00;102726.09;5061780;28;44864;-83
2022/01/11 05:18:17;;;;;;;;;33.33;29.33;;;;;2.92;100.00;102726.09;5061935;28;44905;-82
2022/01/11 05:20:43;;;;;;;;;36.67;32.67;;;;;2.89;100.00;102726.97;5057116;28;45339;-83
2022/01/11 05:23:10;;;;;;;;;42.67;30.33;;;;;2.91;100.00;102725.22;5058353;28;45441;-82
2022/01/11 05:25:36;;;;;;;;;39.33;35.00;;;;;2.90;100.00;102731.34;5057669;28;44812;-81
2022/01/11 05:28:02;;;;;;;;;42.00;37.00;;;;;2.88;100.00;102732.22;5057541;28;45328;-81
2022/01/11 05:30:28;;;;;;;;;37.67;32.00;;;;;2.86;100.00;102729.63;5057438;28;44759;-80
2022/01/11 05:32:54;;;;;;;;;34.00;29.67;;;;;2.87;100.00;102731.34;5057040;28;45370;-79
2022/01/11 05:35:21;;;;;;;;;46.67;36.67;;;;;2.87;100.00;102730.50;5056818;28;45310;-81
2022/01/11 05:37:49;;;;;;;;;43.33;34.00;;;;;2.86;100.00;102727.00;5057374;28;45151;-81
2022/01/11 05:40:16;;;;;;;;;40.00;34.33;;;;;2.86;100.00;102737.50;5077625;27;44805;-81
2022/01/11 05:42:44;;;;;;;;;44.33;37.67;;;;;2.83;100.00;102748.84;5077626;28;44701;-82
2022/01/11 05:45:10;;;;;;;;;37.67;31.67;;;;;2.86;100.00;102753.25;5077502;27;44870;-81
2022/01/11 05:47:36;;;;;;;;;39.67;35.67;;;;;2.84;100.00;102755.84;5076585;27;45323;-81
2022/01/11 05:50:06;;;;;;;;;49.00;37.00;;;;;2.81;100.00;102753.25;5076503;27;44810;-81
2022/01/11 05:52:32;;;;;;;;;48.00;35.33;;;;;2.79;100.00;102748.88;5076550;27;44693;-81
2022/01/11 05:54:57;;;;;;;;;58.33;39.00;;;;;2.77;100.00;102756.75;5078908;27;44956;-81
2022/01/11 05:57:23;;;;;;;;;47.67;35.67;;;;;2.76;100.00;102759.38;5083450;28;45200;-81
2022/01/11 05:59:48;;;;;;;;;42.00;36.00;;;;;2.77;100.00;102756.75;5078792;27;44739;-81
2022/01/11 06:02:14;;;;;;;;;37.67;35.67;;;;;2.77;100.00;102753.25;5076103;28;45387;-81
2022/01/11 06:04:40;;;;;;;;;45.33;38.67;;;;;2.77;100.00;102754.13;5075585;28;44815;-80
2022/01/11 06:07:05;;;;;;;;;57.67;38.33;;;;;2.77;100.00;102763.75;5076704;27;45050;-80
2022/01/11 06:09:30;;;;;;;;;53.67;37.00;;;;;2.75;100.00;102768.13;5075392;27;45331;-82
2022/01/11 06:11:56;;;;;;;;;51.33;36.00;;;;;2.72;100.00;102770.75;5075351;28;44997;-81
2022/01/11 06:14:22;;;;;;;;;43.67;37.00;;;;;2.70;100.00;102776.00;5076556;27;44794;-81
2022/01/11 06:16:48;;;;;;;;;51.00;37.00;;;;;2.73;100.00;102786.50;5076583;27;45629;-81
2022/01/11 06:19:13;;;;;;;;;41.33;37.00;;;;;2.72;100.00;102778.63;5076111;27;44770;-81
2022/01/11 06:21:41;;;;;;;;;54.00;38.67;;;;;2.71;100.00;102780.38;5076833;27;45208;-81
2022/01/11 06:24:07;;;;;;;;;50.67;36.67;;;;;2.71;100.00;102779.53;5076657;27;45504;-80
2022/01/11 06:26:34;;;;;;;;;42.33;29.00;;;;;2.71;100.00;102793.50;5076497;28;45485;-84
2022/01/11 06:29:01;;;;;;;;;47.33;38.67;;;;;2.69;100.00;102784.75;5076847;27;44935;-85
2022/01/11 06:31:27;;;;;;;;;44.00;36.67;;;;;2.65;100.00;102783.00;5079087;28;45390;-83
2022/01/11 06:33:53;;;;;;;;;44.67;36.67;;;;;2.63;100.00;102783.91;5077545;27;44939;-83
2022/01/11 06:36:20;;;;;;;;;45.00;35.67;;;;;2.60;100.00;102797.00;5079924;27;45152;-86
2022/01/11 06:38:46;;;;;;;;;52.33;34.33;;;;;2.55;100.00;102792.63;5074064;28;44710;-84
2022/01/11 06:41:12;;;;;;;;;55.67;39.67;;;;;2.52;100.00;102787.41;5059173;28;44880;-82
2022/01/11 06:43:38;;;;;;;;;49.67;36.00;;;;;2.50;100.00;102791.75;5057467;28;44773;-82
2022/01/11 06:46:04;;;;;;;;;50.33;39.67;;;;;2.46;100.00;102802.25;5055890;28;44988;-82
2022/01/11 06:48:30;;;;;;;;;58.00;43.67;;;;;2.44;100.00;102806.63;5055777;28;44760;-82
2022/01/11 06:50:56;;;;;;;;;44.67;32.67;;;;;2.42;100.00;102813.59;5054630;28;44708;-82
2022/01/11 06:53:21;;;;;;;;;47.33;39.67;;;;;2.44;100.00;102809.25;5056045;28;44770;-81
2022/01/11 06:55:47;;;;;;;;;47.67;41.33;;;;;2.41;100.00;102807.50;5054348;28;45478;-82
2022/01/11 06:58:13;;;;;;;;;55.67;44.00;;;;;2.41;100.00;102812.72;5053921;28;45367;-82
2022/01/11 07:00:39;;;;;;;;;55.33;41.33;;;;;2.43;100.00;102813.63;5056131;28;44708;-83
2022/01/11 07:03:05;;;;;;;;;49.00;40.00;;;;;2.40;100.00;102803.13;5057653;28;45447;-82
2022/01/11 07:05:30;;;;;;;;;57.00;41.33;;;;;2.35;100.00;102797.00;5060443;28;45268;-81
2022/01/11 07:07:56;;;;;;;;;51.67;43.00;;;;;2.37;100.00;102797.00;5060319;28;44710;-82
2022/01/11 07:10:21;;;;;;;;;59.33;37.00;;;;;2.35;100.00;102801.38;5059840;28;44687;-82
2022/01/11 07:12:47;;;;;;;;;58.00;43.33;;;;;2.35;100.00;102810.13;5058349;28;44777;-82
2022/01/11 07:15:12;;;;;;;;;53.67;42.00;;;;;2.38;100.00;102812.75;5058937;28;45446;-82
2022/01/11 07:17:38;;;;;;;;;56.33;41.67;;;;;2.40;100.00;102816.25;5058991;28;45477;-83
2022/01/11 07:20:05;;;;;;;;;48.67;39.00;;;;;2.37;100.00;102813.63;5065958;28;45237;-82
2022/01/11 07:22:30;;;;;;;;;50.67;44.00;;;;;2.38;100.00;102814.50;5063671;28;44857;-82
2022/01/11 07:24:56;;;;;;;;;57.00;41.33;;;;;2.38;100.00;102809.25;5056048;28;45420;-81
2022/01/11 07:27:21;;;;;;;;;56.00;40.00;;;;;2.39;100.00;102817.13;5057757;28;45433;-81
2022/01/11 07:29:47;;;;;;;;;57.67;46.33;;;;;2.39;100.00;102824.13;5059039;28;45383;-82
2022/01/11 07:32:13;;;;;;;;;41.33;35.67;;;;;2.40;100.00;102834.59;5058791;28;44828;-81
2022/01/11 07:34:38;;;;;;;;;47.33;40.00;;;;;2.40;100.00;102839.84;5059103;28;45061;-83
2022/01/11 07:37:03;;;;;;;;;61.00;43.33;;;;;2.41;100.00;102844.22;5062455;28;44801;-85
2022/01/11 07:39:29;;;;;;;;;57.33;40.00;;;;;2.42;100.00;102852.94;5058198;28;44752;-85
2022/01/11 07:41:55;;;;;;;;;57.33;45.33;;;;;2.43;100.00;102863.47;5061238;28;44904;-85
2022/01/11 07:44:20;;;;;;;;;42.00;36.33;;;;;2.41;100.00;102864.31;5059629;28;45314;-87
2022/01/11 07:46:46;;;;;;;;;50.00;40.33;;;;;2.40;100.00;102862.56;5060007;28;44808;-84
2022/01/11 07:49:12;;;;;;;;;50.33;38.33;;;;;2.42;100.00;102866.06;5061454;28;44717;-86
2022/01/11 07:51:37;;;;;;;;;60.67;40.33;;;;;2.40;100.00;102854.72;5061000;28;44742;-85
2022/01/11 07:54:03;;;;;;;;;51.67;41.67;;;;;2.39;100.00;102864.34;5060386;28;46212;-85
2022/01/11 07:56:28;;;;;;;;;51.67;42.00;;;;;2.43;100.00;102859.97;5058535;28;45474;-85
2022/01/11 07:58:54;;;;;;;;;59.67;47.33;;;;;2.45;100.00;102869.56;5060918;28;45513;-85
2022/01/11 08:01:19;;;;;;;;;51.67;41.00;;;;;2.44;100.00;102862.59;5065169;28;44887;-87
2022/01/11 08:03:46;;;;;;;;;52.33;39.00;;;;;2.44;100.00;102867.84;5068843;28;45276;-86
2022/01/11 08:06:12;;;;;;;;;58.33;42.00;;;;;2.44;100.00;102859.97;5065260;28;45268;-87
2022/01/11 08:08:37;;;;;;;;;54.67;43.67;;;;;2.44;100.00;102859.97;5061259;28;44821;-87
2022/01/11 08:11:03;;;;;;;;;57.67;43.67;;;;;2.47;100.00;102866.97;5061263;28;45154;-86
2022/01/11 08:13:29;;;;;;;;;61.33;43.67;;;;;2.50;100.00;102870.44;5060964;28;45031;-89
2022/01/11 08:15:56;;;;;;;;;58.67;42.00;;;;;2.52;100.00;102878.34;5060069;28;45168;-89
2022/01/11 08:18:26;;;;;;;;;59.00;42.00;;;;;2.50;100.00;102882.69;5064106;28;44739;-95
2022/01/11 08:20:53;;;;;;;;;45.33;38.00;;;;;2.52;100.00;102888.84;5067063;28;44920;-89
2022/01/11 08:23:18;;;;;;;;;54.67;41.00;;;;;2.49;100.00;102892.31;5058838;28;46547;-88
2022/01/11 08:25:43;;;;;;;;;62.00;47.00;;;;;2.49;100.00;102894.94;5062793;28;45374;-88
2022/01/11 08:28:13;;;;;;;;;62.33;46.00;;;;;2.50;100.00;102901.94;5058011;28;45177;-85
2022/01/11 08:30:39;;;;;;;;;53.00;43.00;;;;;2.49;100.00;102896.69;5059556;28;44892;-86
2022/01/11 08:33:05;;;;;;;;;58.00;42.33;;;;;2.49;100.00;102904.56;5059600;28;45287;-85
2022/01/11 08:35:32;;;;;;;;;65.00;47.33;;;;;2.50;100.00;102901.06;5059272;28;44749;-86
2022/01/11 08:37:58;;;;;;;;;52.00;40.67;;;;;2.52;100.00;102908.06;5061360;28;44918;-86
2022/01/11 08:40:24;;;;;;;;;56.33;43.67;;;;;2.53;100.00;102903.69;5079746;27;45355;-86
2022/01/11 08:42:50;;;;;;;;;63.00;44.00;;;;;2.50;100.00;102906.31;5079957;27;45582;-86
2022/01/11 08:45:15;;;;;;;;;62.67;43.00;;;;;2.51;100.00;102901.06;5083665;28;45215;-84
2022/01/11 08:47:41;;;;;;;;;69.00;50.00;;;;;2.54;100.00;102901.06;5086481;27;44851;-84
2022/01/11 08:50:11;;;;;;;;;61.67;47.67;;;;;2.53;100.00;102901.06;5082179;27;44939;-86
2022/01/11 08:52:38;;;;;;;;;58.33;46.33;;;;;2.56;100.00;102895.81;5077765;27;46810;-85
2022/01/11 08:55:04;;;;;;;;;64.67;49.33;;;;;2.61;100.00;102895.81;5081354;27;44819;-86
2022/01/11 08:57:29;;;;;;;;;78.33;57.67;;;;;2.62;100.00;102906.34;5080803;27;44774;-85
2022/01/11 08:59:55;;;;;;;;;63.67;50.33;;;;;2.62;100.00;102898.47;5086596;28;45389;-87
2022/01/11 09:02:21;;;;;;;;;66.33;51.00;;;;;2.63;100.00;102905.47;5088736;28;45116;-86
2022/01/11 09:04:47;;;;;;;;;52.33;44.00;;;;;2.62;100.00;102893.22;5084607;27;44684;-87
2022/01/11 09:07:13;;;;;;;;;65.00;47.67;;;;;2.64;100.00;102899.34;5077880;28;44712;-86
2022/01/11 09:09:39;;;;;;;;;66.67;49.00;;;;;2.64;100.00;102901.94;5082391;27;44789;-86
2022/01/11 09:12:08;;;;;;;;;59.67;45.67;;;;;2.67;100.00;102916.84;5083574;27;45393;-86
2022/01/11 09:14:34;;;;;;;;;68.00;48.33;;;;;2.68;100.00;102919.47;5084463;27;45162;-86
2022/01/11 09:17:03;;;;;;;;;58.00;44.00;;;;;2.65;100.00;102922.06;5079012;27;44723;-85
2022/01/11 09:19:31;;;;;;;;;58.00;45.67;;;;;2.64;100.00;102925.56;5078270;27;44867;-86
2022/01/11 09:21:56;;;;;;;;;67.33;50.33;;;;;2.66;100.00;102915.97;5078277;28;45831;-86
2022/01/11 09:24:29;;;;;;;;;67.67;48.33;;;;;2.69;100.00;102917.72;5078086;27;44907;-86
2022/01/11 09:26:55;;;;;;;;;61.33;49.00;;;;;2.75;100.00;102925.56;5076609;27;44748;-86
2022/01/11 09:29:21;;;;;;;;;54.33;40.00;;;;;2.83;100.00;102924.72;5079081;27;44894;-84
2022/01/11 09:31:46;;;;;;;;;58.00;43.00;;;;;2.88;100.00;102934.34;5083536;27;45369;-86
2022/01/11 09:34:12;;;;;;;;;55.00;47.00;;;;;2.87;100.00;102937.84;5085151;27;44781;-86
2022/01/11 09:36:38;;;;;;;;;66.67;48.67;;;;;2.93;100.00;102943.97;5081309;27;44844;-85
2022/01/11 09:39:04;;;;;;;;;66.00;48.33;;;;;2.97;100.00;102943.09;5078313;28;44668;-86
2022/01/11 09:41:30;;;;;;;;;56.33;45.67;;;;;2.99;100.00;102937.84;5079628;27;45178;-86
2022/01/11 09:43:57;;;;;;;;;64.33;47.67;;;;;2.99;100.00;102943.97;5077426;28;45231;-85
2022/01/11 09:46:23;;;;;;;;;56.00;41.33;;;;;3.02;100.00;102937.84;5059418;28;44772;-85
2022/01/11 09:48:49;;;;;;;;;57.00;44.33;;;;;3.08;100.00;102940.47;5058290;28;44735;-84
2022/01/11 09:51:15;;;;;;;;;63.00;48.00;;;;;3.15;100.00;102944.84;5059842;27;45888;-84
2022/01/11 09:53:40;;;;;;;;;63.33;48.00;;;;;3.23;100.00;102948.31;5073507;27;44847;-87
2022/01/11 09:56:08;;;;;;;;;59.67;45.00;;;;;3.26;100.00;102953.59;5062366;28;44859;-85
2022/01/11 09:58:35;;;;;;;;;58.67;42.67;;;;;3.31;100.00;102950.97;5057950;28;44894;-87
2022/01/11 10:01:01;;;;;;;;;59.67;43.33;;;;;3.31;100.00;102954.47;5057259;28;45136;-83
2022/01/11 10:03:27;;;;;;;;;61.67;44.67;;;;;3.32;100.00;102960.59;5054935;28;44880;-83
2022/01/11 10:05:52;;;;;;;;;58.67;45.00;;;;;3.33;100.00;102957.94;5054916;28;45009;-82
2022/01/11 10:08:27;;;;;;;;;50.33;41.33;;;;;3.33;100.00;102955.31;5056481;28;45554;-83
2022/01/11 10:10:54;;;;;;;;;65.33;46.33;;;;;3.32;100.00;102961.44;5056343;28;45288;-82
2022/01/11 10:13:40;;;;;;;;;56.33;41.67;;;;;3.32;100.00;102953.56;5056934;28;44880;-82
2022/01/11 10:16:26;;;;;;;;;56.00;42.00;;;;;3.37;100.00;102948.31;5061171;28;44808;-82
2022/01/11 10:18:53;;;;;;;;;59.67;46.33;;;;;3.41;100.00;102952.69;5061553;28;45337;-83
2022/01/11 10:21:39;;;;;;;;;62.00;44.33;;;;;3.42;100.00;102967.56;5058010;28;45269;-84
2022/01/11 10:24:32;;;;;;;;;57.33;44.33;;;;;3.45;100.00;102967.59;5057709;28;44809;-82
2022/01/11 10:27:02;;;;;;;;;62.67;43.33;;;;;3.49;100.00;102966.69;5056700;28;45562;-83
2022/01/11 10:29:40;;;;;;;;;50.67;42.00;;;;;3.55;100.00;102968.44;5054423;28;44871;-82
2022/01/11 10:32:22;;;;;;;;;61.00;47.67;;;;;3.61;100.00;102965.78;5055132;28;45093;-82
2022/01/11 10:34:51;;;;;;;;;53.33;43.33;;;;;3.60;100.00;102958.78;5055795;28;44836;-82
2022/01/11 10:37:52;;;;;;;;;59.67;43.67;;;;;3.66;100.00;102957.91;5054872;28;44802;-82
2022/01/11 10:40:20;;;;;;;;;53.33;40.00;;;;;3.74;100.00;102962.25;5055596;28;44817;-83
2022/01/11 10:42:49;;;;;;;;;50.00;37.67;;;;;3.68;100.00;102964.91;5056003;28;45248;-83
2022/01/11 10:45:19;;;;;;;;;53.33;41.67;;;;;3.72;100.00;102966.63;5056130;28;44824;-83
2022/01/11 10:47:52;;;;;;;;;55.00;40.67;;;;;3.79;100.00;102963.13;5055419;28;44879;-83
2022/01/11 10:50:30;;;;;;;;;64.00;47.67;;;;;3.92;100.00;102968.34;5055945;28;44721;-84
2022/01/11 10:52:58;;;;;;;;;68.00;50.67;;;;;3.95;100.00;102966.56;5055428;28;45289;-82
2022/01/11 10:55:27;;;;;;;;;65.33;47.33;;;;;4.04;100.00;102958.66;5054045;28;45392;-84
2022/01/11 10:58:04;;;;;;;;;46.33;41.67;;;;;4.16;100.00;102967.34;5057609;28;44757;-82
2022/01/11 11:00:38;;;;;;;;;56.00;45.67;;;;;4.17;100.00;102972.63;5057127;28;44847;-82
2022/01/11 11:03:21;;;;;;;;;61.33;46.00;;;;;4.20;100.00;102969.97;5059272;28;45001;-84
2022/01/11 11:05:54;;;;;;;;;56.67;43.67;;;;;4.24;100.00;102968.22;5057842;28;44752;-83
2022/01/11 11:08:23;;;;;;;;;40.33;37.33;;;;;4.22;100.00;102968.22;5057956;28;44810;-84